PWSweather.com
Personal Weather Stations
Station Observations
KV9EWX
Winnebago, Il, Winnebago, IL 61088

Winnebago, IlWinnebago, IL 61088

Lat: 42.261175, Lon: -89.236369

Elevation: 892

Station Type: Lacrosse ws-2811

Latest ConditionsUpdated 11:17:58 AM CDT Saturday, May 23, 2015
Currently Today's Max Today's Min Today's Average
Temperature 76.4°F24.7°C 76.4°F24.7°C 43.7°F6.5°C 54.7°F12.6°C
Dew Point 45.8°F7.7°C 48.1°F8.9°C 31.8°F-0.1°C 37.0°F2.8°C
Winds 5.5 mph SSE8.9 kmh SSE 10.8 mph SSE17.4 kmh SSE - 3.2 mph 5.1 kmh
Wind Gusts 12.1 mph19.5 kmh 19.6 mph31.5 kmh - -
Humidity 34% 66% 34% 53%
Pressure 29.88 in1011.9 mb 29.91 in1012.9 mb 29.85 in1010.8 mb -
Hour Temp Dew Point Humidity Winds Wind Gusts Pressure Precip Precip Rate Daily Precip Total
11:17 AM 76.4°F24.7°C 45.8°F7.7°C 34% 5.5 mph SSE8.9 kmh SSE 12.1 mph19.5 kmh 29.88 in1011.9 mb 0.00 in0.0 mm 0.00 in0.0 mm 0.00 in0.0 mm
11:12 AM 76.4°F24.7°C 48.1°F8.9°C 37% 4.1 mph S6.6 kmh S 11.0 mph17.7 kmh 29.88 in1011.9 mb 0.00 in0.0 mm 0.00 in0.0 mm 0.00 in0.0 mm
11:07 AM 76.0°F24.4°C 47.7°F8.7°C 37% 5.4 mph S8.7 kmh S 11.4 mph18.3 kmh 29.88 in1011.9 mb 0.00 in0.0 mm 0.00 in0.0 mm 0.00 in0.0 mm
11:02 AM 75.8°F24.3°C 47.5°F8.6°C 37% 5.8 mph S9.3 kmh S 11.4 mph18.3 kmh 29.88 in1011.9 mb 0.00 in0.0 mm 0.00 in0.0 mm 0.00 in0.0 mm
10:57 AM 76.0°F24.4°C 47.7°F8.7°C 37% 5.6 mph S9.0 kmh S 11.4 mph18.3 kmh 29.88 in1011.9 mb 0.00 in0.0 mm 0.00 in0.0 mm 0.00 in0.0 mm
10:52 AM 75.5°F24.2°C 48.0°F8.9°C 38% 5.8 mph SE9.3 kmh SE 13.7 mph22.0 kmh 29.87 in1011.5 mb 0.00 in0.0 mm 0.00 in0.0 mm 0.00 in0.0 mm
10:46 AM 74.6°F23.7°C 45.7°F7.6°C 36% 7.2 mph SE11.6 kmh SE 13.7 mph22.0 kmh 29.87 in1011.5 mb 0.00 in0.0 mm 0.00 in0.0 mm 0.00 in0.0 mm
10:41 AM 74.9°F23.8°C 46.0°F7.8°C 36% 6.4 mph SSW10.3 kmh SSW 11.0 mph17.7 kmh 29.87 in1011.5 mb 0.00 in0.0 mm 0.00 in0.0 mm 0.00 in0.0 mm
10:36 AM 75.3°F24.1°C 47.1°F8.4°C 37% 5.4 mph SSE8.7 kmh SSE 10.2 mph16.4 kmh 29.88 in1011.9 mb 0.00 in0.0 mm 0.00 in0.0 mm 0.00 in0.0 mm
10:31 AM 74.9°F23.8°C 47.4°F8.6°C 38% 4.5 mph S7.2 kmh S 8.9 mph14.3 kmh 29.88 in1011.9 mb 0.00 in0.0 mm 0.00 in0.0 mm 0.00 in0.0 mm
10:26 AM 74.2°F23.4°C 46.8°F8.2°C 38% 4.3 mph S6.9 kmh S 11.4 mph18.3 kmh 29.88 in1011.9 mb 0.00 in0.0 mm 0.00 in0.0 mm 0.00 in0.0 mm
10:21 AM 73.8°F23.2°C 46.5°F8.1°C 38% 5.7 mph SSE9.2 kmh SSE 11.4 mph18.3 kmh 29.88 in1011.9 mb 0.00 in0.0 mm 0.00 in0.0 mm 0.00 in0.0 mm
10:16 AM 73.5°F23.1°C 46.9°F8.3°C 39% 6.8 mph SE10.9 kmh SE 12.1 mph19.5 kmh 29.88 in1011.9 mb 0.00 in0.0 mm 0.00 in0.0 mm 0.00 in0.0 mm
10:11 AM 72.5°F22.5°C 46.7°F8.2°C 40% 4.6 mph S7.4 kmh S 13.7 mph22.0 kmh 29.89 in1012.2 mb 0.00 in0.0 mm 0.00 in0.0 mm 0.00 in0.0 mm
10:06 AM 71.8°F22.1°C 45.4°F7.4°C 39% 4.6 mph S7.4 kmh S 13.7 mph22.0 kmh 29.89 in1012.2 mb 0.00 in0.0 mm 0.00 in0.0 mm 0.00 in0.0 mm
10:01 AM 72.0°F22.2°C 45.5°F7.5°C 39% 6.6 mph S10.6 kmh S 13.3 mph21.4 kmh 29.89 in1012.2 mb 0.00 in0.0 mm 0.00 in0.0 mm 0.00 in0.0 mm
09:56 AM 71.8°F22.1°C 46.0°F7.8°C 40% 4.2 mph SSE6.8 kmh SSE 13.3 mph21.4 kmh 29.89 in1012.2 mb 0.00 in0.0 mm 0.00 in0.0 mm 0.00 in0.0 mm
09:51 AM 71.4°F21.9°C 45.0°F7.2°C 39% 6.3 mph SSE10.1 kmh SSE 14.9 mph24.0 kmh 29.90 in1012.5 mb 0.00 in0.0 mm 0.00 in0.0 mm 0.00 in0.0 mm
09:45 AM 71.4°F21.9°C 43.6°F6.4°C 37% 6.8 mph S10.9 kmh S 17.1 mph27.5 kmh 29.90 in1012.5 mb 0.00 in0.0 mm 0.00 in0.0 mm 0.00 in0.0 mm
09:40 AM 71.6°F22.0°C 43.8°F6.6°C 37% 9.0 mph S14.5 kmh S 18.4 mph29.6 kmh 29.90 in1012.5 mb 0.00 in0.0 mm 0.00 in0.0 mm 0.00 in0.0 mm
09:35 AM 71.6°F22.0°C 44.5°F6.9°C 38% 8.9 mph SSE14.3 kmh SSE 18.4 mph29.6 kmh 29.90 in1012.5 mb 0.00 in0.0 mm 0.00 in0.0 mm 0.00 in0.0 mm
09:30 AM 71.2°F21.8°C 43.4°F6.3°C 37% 8.2 mph SSE13.2 kmh SSE 14.2 mph22.9 kmh 29.90 in1012.5 mb 0.00 in0.0 mm 0.00 in0.0 mm 0.00 in0.0 mm
09:25 AM 71.1°F21.7°C 43.3°F6.3°C 37% 8.4 mph SSE13.5 kmh SSE 13.7 mph22.0 kmh 29.90 in1012.5 mb 0.00 in0.0 mm 0.00 in0.0 mm 0.00 in0.0 mm
09:20 AM 70.7°F21.5°C 43.7°F6.5°C 38% 7.7 mph S12.4 kmh S 17.1 mph27.5 kmh 29.90 in1012.5 mb 0.00 in0.0 mm 0.00 in0.0 mm 0.00 in0.0 mm
09:15 AM 70.5°F21.4°C 42.8°F6.0°C 37% 9.2 mph SSE14.8 kmh SSE 17.1 mph27.5 kmh 29.90 in1012.5 mb 0.00 in0.0 mm 0.00 in0.0 mm 0.00 in0.0 mm
09:10 AM 70.2°F21.2°C 43.3°F6.3°C 38% 5.8 mph S9.3 kmh S 13.7 mph22.0 kmh 29.90 in1012.5 mb 0.00 in0.0 mm 0.00 in0.0 mm 0.00 in0.0 mm
09:05 AM 69.5°F20.8°C 42.6°F5.9°C 38% 6.8 mph S10.9 kmh S 15.2 mph24.5 kmh 29.90 in1012.5 mb 0.00 in0.0 mm 0.00 in0.0 mm 0.00 in0.0 mm
09:00 AM 69.4°F20.8°C 43.2°F6.2°C 39% 8.3 mph SSE13.4 kmh SSE 19.6 mph31.5 kmh 29.90 in1012.5 mb 0.00 in0.0 mm 0.00 in0.0 mm 0.00 in0.0 mm
08:55 AM 68.5°F20.3°C 41.7°F5.4°C 38% 9.5 mph S15.3 kmh S 19.6 mph31.5 kmh 29.90 in1012.5 mb 0.00 in0.0 mm 0.00 in0.0 mm 0.00 in0.0 mm
08:50 AM 67.9°F19.9°C 41.9°F5.5°C 39% 8.7 mph S14.0 kmh S 18.4 mph29.6 kmh 29.90 in1012.5 mb 0.00 in0.0 mm 0.00 in0.0 mm 0.00 in0.0 mm
08:45 AM 67.7°F19.8°C 41.7°F5.4°C 39% 8.2 mph S13.2 kmh S 18.4 mph29.6 kmh 29.90 in1012.5 mb 0.00 in0.0 mm 0.00 in0.0 mm 0.00 in0.0 mm
08:40 AM 67.6°F19.8°C 42.3°F5.7°C 40% 8.8 mph S14.2 kmh S 18.4 mph29.6 kmh 29.90 in1012.5 mb 0.00 in0.0 mm 0.00 in0.0 mm 0.00 in0.0 mm
08:35 AM 67.6°F19.8°C 42.3°F5.7°C 40% 7.0 mph S11.3 kmh S 18.0 mph29.0 kmh 29.90 in1012.5 mb 0.00 in0.0 mm 0.00 in0.0 mm 0.00 in0.0 mm
08:30 AM 67.0°F19.4°C 41.8°F5.4°C 40% 7.9 mph S12.7 kmh S 18.0 mph29.0 kmh 29.90 in1012.5 mb 0.00 in0.0 mm 0.00 in0.0 mm 0.00 in0.0 mm
08:25 AM 66.7°F19.3°C 42.2°F5.7°C 41% 8.6 mph SE13.8 kmh SE 15.2 mph24.5 kmh 29.90 in1012.5 mb 0.00 in0.0 mm 0.00 in0.0 mm 0.00 in0.0 mm
08:20 AM 66.3°F19.1°C 41.8°F5.4°C 41% 10.8 mph SSE17.4 kmh SSE 15.2 mph24.5 kmh 29.90 in1012.5 mb 0.00 in0.0 mm 0.00 in0.0 mm 0.00 in0.0 mm
08:15 AM 65.7°F18.7°C 42.5°F5.8°C 43% 5.8 mph S9.3 kmh S 15.2 mph24.5 kmh 29.90 in1012.5 mb 0.00 in0.0 mm 0.00 in0.0 mm 0.00 in0.0 mm
08:10 AM 65.3°F18.5°C 43.3°F6.3°C 45% 7.3 mph S11.7 kmh S 15.2 mph24.5 kmh 29.91 in1012.9 mb 0.00 in0.0 mm 0.00 in0.0 mm 0.00 in0.0 mm
08:05 AM 64.4°F18.0°C 43.7°F6.5°C 47% 5.8 mph SSE9.3 kmh SSE 11.0 mph17.7 kmh 29.91 in1012.9 mb 0.00 in0.0 mm 0.00 in0.0 mm 0.00 in0.0 mm
08:00 AM 63.0°F17.2°C 43.0°F6.1°C 48% 6.1 mph SSE9.8 kmh SSE 11.0 mph17.7 kmh 29.90 in1012.5 mb 0.00 in0.0 mm 0.00 in0.0 mm 0.00 in0.0 mm
07:55 AM 61.1°F16.2°C 43.4°F6.3°C 52% 5.8 mph SSE9.3 kmh SSE 14.9 mph24.0 kmh 29.90 in1012.5 mb 0.00 in0.0 mm 0.00 in0.0 mm 0.00 in0.0 mm
07:50 AM 59.2°F15.1°C 43.1°F6.2°C 55% 3.6 mph S5.8 kmh S 14.9 mph24.0 kmh 29.90 in1012.5 mb 0.00 in0.0 mm 0.00 in0.0 mm 0.00 in0.0 mm
07:45 AM 56.6°F13.7°C 41.6°F5.3°C 57% 5.3 mph S8.5 kmh S 14.9 mph24.0 kmh 29.90 in1012.5 mb 0.00 in0.0 mm 0.00 in0.0 mm 0.00 in0.0 mm
07:40 AM 54.1°F12.3°C 39.3°F4.1°C 57% 3.4 mph SSE5.5 kmh SSE 12.1 mph19.5 kmh 29.90 in1012.5 mb 0.00 in0.0 mm 0.00 in0.0 mm 0.00 in0.0 mm
07:35 AM 53.4°F11.9°C 38.7°F3.7°C 57% 5.1 mph S8.2 kmh S 10.2 mph16.4 kmh 29.90 in1012.5 mb 0.00 in0.0 mm 0.00 in0.0 mm 0.00 in0.0 mm
07:30 AM 53.1°F11.7°C 38.3°F3.5°C 57% 6.3 mph SSW10.1 kmh SSW 10.2 mph16.4 kmh 29.90 in1012.5 mb 0.00 in0.0 mm 0.00 in0.0 mm 0.00 in0.0 mm
07:25 AM 52.9°F11.6°C 38.1°F3.4°C 57% 3.5 mph S5.6 kmh S 8.6 mph13.8 kmh 29.90 in1012.5 mb 0.00 in0.0 mm 0.00 in0.0 mm 0.00 in0.0 mm
07:20 AM 52.8°F11.6°C 38.0°F3.3°C 57% 3.7 mph S6.0 kmh S 9.8 mph15.8 kmh 29.89 in1012.2 mb 0.00 in0.0 mm 0.00 in0.0 mm 0.00 in0.0 mm
07:14 AM 52.6°F11.4°C 38.3°F3.5°C 58% 4.2 mph S6.8 kmh S 10.5 mph16.9 kmh 29.90 in1012.5 mb 0.00 in0.0 mm 0.00 in0.0 mm 0.00 in0.0 mm
07:09 AM 52.2°F11.2°C 38.4°F3.6°C 59% 5.4 mph S8.7 kmh S 10.5 mph16.9 kmh 29.90 in1012.5 mb 0.00 in0.0 mm 0.00 in0.0 mm 0.00 in0.0 mm
07:04 AM 51.9°F11.1°C 38.5°F3.6°C 60% 2.9 mph SSE4.7 kmh SSE 8.2 mph13.2 kmh 29.90 in1012.5 mb 0.00 in0.0 mm 0.00 in0.0 mm 0.00 in0.0 mm
06:59 AM 51.3°F10.7°C 38.0°F3.3°C 60% 4.6 mph S7.4 kmh S 9.4 mph15.1 kmh 29.90 in1012.5 mb 0.00 in0.0 mm 0.00 in0.0 mm 0.00 in0.0 mm
06:53 AM 50.8°F10.4°C 38.0°F3.3°C 61% 4.3 mph SSE6.9 kmh SSE 9.4 mph15.1 kmh 29.90 in1012.5 mb 0.00 in0.0 mm 0.00 in0.0 mm 0.00 in0.0 mm
06:49 AM 50.2°F10.1°C 37.8°F3.2°C 62% 4.1 mph SSE6.6 kmh SSE 8.2 mph13.2 kmh 29.90 in1012.5 mb 0.00 in0.0 mm 0.00 in0.0 mm 0.00 in0.0 mm
06:43 AM 49.8°F9.9°C 37.8°F3.2°C 63% 3.5 mph SSE5.6 kmh SSE 8.2 mph13.2 kmh 29.90 in1012.5 mb 0.00 in0.0 mm 0.00 in0.0 mm 0.00 in0.0 mm
06:38 AM 48.9°F9.4°C 37.3°F2.9°C 64% 3.2 mph SSE5.1 kmh SSE 7.0 mph11.3 kmh 29.90 in1012.5 mb 0.00 in0.0 mm 0.00 in0.0 mm 0.00 in0.0 mm
06:33 AM 48.4°F9.1°C 36.9°F2.7°C 64% 3.4 mph S5.5 kmh S 7.9 mph12.7 kmh 29.90 in1012.5 mb 0.00 in0.0 mm 0.00 in0.0 mm 0.00 in0.0 mm
06:28 AM 47.8°F8.8°C 36.3°F2.4°C 64% 2.6 mph SE4.2 kmh SE 7.9 mph12.7 kmh 29.90 in1012.5 mb 0.00 in0.0 mm 0.00 in0.0 mm 0.00 in0.0 mm
06:23 AM 47.1°F8.4°C 35.7°F2.1°C 64% 3.6 mph S5.8 kmh S 6.7 mph10.8 kmh 29.90 in1012.5 mb 0.00 in0.0 mm 0.00 in0.0 mm 0.00 in0.0 mm
06:18 AM 46.7°F8.2°C 35.2°F1.8°C 64% 1.9 mph SSE3.1 kmh SSE 3.9 mph6.3 kmh 29.90 in1012.5 mb 0.00 in0.0 mm 0.00 in0.0 mm 0.00 in0.0 mm
06:13 AM 46.3°F7.9°C 34.9°F1.6°C 64% 0.7 mph SSE1.1 kmh SSE 6.3 mph10.1 kmh 29.90 in1012.5 mb 0.00 in0.0 mm 0.00 in0.0 mm 0.00 in0.0 mm
06:08 AM 46.1°F7.8°C 34.7°F1.5°C 64% 2.1 mph SE3.4 kmh SE 6.3 mph10.1 kmh 29.89 in1012.2 mb 0.00 in0.0 mm 0.00 in0.0 mm 0.00 in0.0 mm
06:03 AM 45.8°F7.7°C 34.8°F1.6°C 65% 1.3 mph SE2.1 kmh SE 5.4 mph8.7 kmh 29.89 in1012.2 mb 0.00 in0.0 mm 0.00 in0.0 mm 0.00 in0.0 mm
05:58 AM 45.4°F7.4°C 34.4°F1.3°C 65% 2.1 mph SSE3.4 kmh SSE 5.4 mph8.7 kmh 29.89 in1012.2 mb 0.00 in0.0 mm 0.00 in0.0 mm 0.00 in0.0 mm
05:53 AM 45.0°F7.2°C 34.0°F1.1°C 65% 1.8 mph SE2.9 kmh SE 4.4 mph7.1 kmh 29.89 in1012.2 mb 0.00 in0.0 mm 0.00 in0.0 mm 0.00 in0.0 mm
05:48 AM 45.0°F7.2°C 34.4°F1.3°C 66% 1.3 mph S2.1 kmh S 6.7 mph10.8 kmh 29.89 in1012.2 mb 0.00 in0.0 mm 0.00 in0.0 mm 0.00 in0.0 mm
05:43 AM 44.7°F7.1°C 34.1°F1.2°C 66% 3.1 mph S5.0 kmh S 6.7 mph10.8 kmh 29.89 in1012.2 mb 0.00 in0.0 mm 0.00 in0.0 mm 0.00 in0.0 mm
05:38 AM 44.3°F6.8°C 33.8°F1.0°C 66% 1.5 mph S2.4 kmh S 3.1 mph5.0 kmh 29.89 in1012.2 mb 0.00 in0.0 mm 0.00 in0.0 mm 0.00 in0.0 mm
05:33 AM 44.0°F6.7°C 33.5°F0.8°C 66% 1.2 mph S1.9 kmh S 3.1 mph5.0 kmh 29.89 in1012.2 mb 0.00 in0.0 mm 0.00 in0.0 mm 0.00 in0.0 mm
05:28 AM 43.7°F6.5°C 32.7°F0.4°C 65% 0.8 mph S1.3 kmh S 2.3 mph3.7 kmh 29.89 in1012.2 mb 0.00 in0.0 mm 0.00 in0.0 mm 0.00 in0.0 mm
05:23 AM 43.7°F6.5°C 32.7°F0.4°C 65% 0.8 mph S1.3 kmh S 2.3 mph3.7 kmh 29.89 in1012.2 mb 0.00 in0.0 mm 0.00 in0.0 mm 0.00 in0.0 mm
05:18 AM 43.7°F6.5°C 32.7°F0.4°C 65% 0.6 mph S1.0 kmh S 2.3 mph3.7 kmh 29.88 in1011.9 mb 0.00 in0.0 mm 0.00 in0.0 mm 0.00 in0.0 mm
05:13 AM 43.8°F6.6°C 32.5°F0.3°C 64% 0.4 mph SSE0.6 kmh SSE 1.9 mph3.1 kmh 29.88 in1011.9 mb 0.00 in0.0 mm 0.00 in0.0 mm 0.00 in0.0 mm
05:08 AM 43.8°F6.6°C 32.5°F0.3°C 64% 1.4 mph S2.3 kmh S 1.9 mph3.1 kmh 29.88 in1011.9 mb 0.00 in0.0 mm 0.00 in0.0 mm 0.00 in0.0 mm
05:03 AM 44.0°F6.7°C 32.7°F0.4°C 64% 0.3 mph SSE0.5 kmh SSE 1.9 mph3.1 kmh 29.88 in1011.9 mb 0.00 in0.0 mm 0.00 in0.0 mm 0.00 in0.0 mm
04:58 AM 44.0°F6.7°C 32.7°F0.4°C 64% 0.7 mph SE1.1 kmh SE 1.9 mph3.1 kmh 29.88 in1011.9 mb 0.00 in0.0 mm 0.00 in0.0 mm 0.00 in0.0 mm
04:53 AM 44.1°F6.7°C 32.4°F0.2°C 63% 0.5 mph SE0.8 kmh SE 1.6 mph2.6 kmh 29.88 in1011.9 mb 0.00 in0.0 mm 0.00 in0.0 mm 0.00 in0.0 mm
04:48 AM 44.1°F6.7°C 32.4°F0.2°C 63% 0.5 mph SSE0.8 kmh SSE 1.6 mph2.6 kmh 29.88 in1011.9 mb 0.00 in0.0 mm 0.00 in0.0 mm 0.00 in0.0 mm
04:43 AM 44.3°F6.8°C 32.6°F0.3°C 63% 0.7 mph ESE1.1 kmh ESE 1.6 mph2.6 kmh 29.87 in1011.5 mb 0.00 in0.0 mm 0.00 in0.0 mm 0.00 in0.0 mm
04:38 AM 44.3°F6.8°C 32.6°F0.3°C 63% 0.6 mph SE1.0 kmh SE 1.6 mph2.6 kmh 29.87 in1011.5 mb 0.00 in0.0 mm 0.00 in0.0 mm 0.00 in0.0 mm
04:33 AM 44.3°F6.8°C 32.6°F0.3°C 63% 0.8 mph SE1.3 kmh SE 2.3 mph3.7 kmh 29.87 in1011.5 mb 0.00 in0.0 mm 0.00 in0.0 mm 0.00 in0.0 mm
04:28 AM 44.3°F6.8°C 32.6°F0.3°C 63% 1.3 mph SSE2.1 kmh SSE 2.3 mph3.7 kmh 29.87 in1011.5 mb 0.00 in0.0 mm 0.00 in0.0 mm 0.00 in0.0 mm
04:23 AM 44.3°F6.8°C 32.6°F0.3°C 63% 0.8 mph SE1.3 kmh SE 1.6 mph2.6 kmh 29.87 in1011.5 mb 0.00 in0.0 mm 0.00 in0.0 mm 0.00 in0.0 mm
04:18 AM 44.3°F6.8°C 32.6°F0.3°C 63% 0.6 mph S1.0 kmh S 3.1 mph5.0 kmh 29.87 in1011.5 mb 0.00 in0.0 mm 0.00 in0.0 mm 0.00 in0.0 mm
04:13 AM 44.3°F6.8°C 32.6°F0.3°C 63% 0.4 mph S0.6 kmh S 3.1 mph5.0 kmh 29.87 in1011.5 mb 0.00 in0.0 mm 0.00 in0.0 mm 0.00 in0.0 mm
04:08 AM 44.3°F6.8°C 32.6°F0.3°C 63% 0.3 mph SSE0.5 kmh SSE 3.9 mph6.3 kmh 29.87 in1011.5 mb 0.00 in0.0 mm 0.00 in0.0 mm 0.00 in0.0 mm
04:02 AM 44.3°F6.8°C 32.2°F0.1°C 62% 0.5 mph SE0.8 kmh SE 3.9 mph6.3 kmh 29.87 in1011.5 mb 0.00 in0.0 mm 0.00 in0.0 mm 0.00 in0.0 mm
03:57 AM 44.3°F6.8°C 32.2°F0.1°C 62% 0.7 mph SSE1.1 kmh SSE 1.9 mph3.1 kmh 29.87 in1011.5 mb 0.00 in0.0 mm 0.00 in0.0 mm 0.00 in0.0 mm
03:52 AM 44.5°F6.9°C 32.4°F0.2°C 62% 0.5 mph SE0.8 kmh SE 1.9 mph3.1 kmh 29.87 in1011.5 mb 0.00 in0.0 mm 0.00 in0.0 mm 0.00 in0.0 mm
03:48 AM 44.7°F7.1°C 32.2°F0.1°C 61% 0.8 mph S1.3 kmh S 1.9 mph3.1 kmh 29.87 in1011.5 mb 0.00 in0.0 mm 0.00 in0.0 mm 0.00 in0.0 mm
03:41 AM 44.9°F7.2°C 32.4°F0.2°C 61% 0.6 mph SSE1.0 kmh SSE 3.5 mph5.6 kmh 29.87 in1011.5 mb 0.00 in0.0 mm 0.00 in0.0 mm 0.00 in0.0 mm
03:36 AM 45.0°F7.2°C 32.4°F0.2°C 61% 0.8 mph SE1.3 kmh SE 3.5 mph5.6 kmh 29.87 in1011.5 mb 0.00 in0.0 mm 0.00 in0.0 mm 0.00 in0.0 mm
03:31 AM 45.0°F7.2°C 32.0°F0.0°C 60% 0.5 mph S0.8 kmh S 1.9 mph3.1 kmh 29.87 in1011.5 mb 0.00 in0.0 mm 0.00 in0.0 mm 0.00 in0.0 mm
03:26 AM 45.2°F7.3°C 32.2°F0.1°C 60% 0.9 mph SSE1.4 kmh SSE 2.3 mph3.7 kmh 29.86 in1011.2 mb 0.00 in0.0 mm 0.00 in0.0 mm 0.00 in0.0 mm
03:21 AM 45.2°F7.3°C 32.2°F0.1°C 60% 0.5 mph SE0.8 kmh SE 2.3 mph3.7 kmh 29.86 in1011.2 mb 0.00 in0.0 mm 0.00 in0.0 mm 0.00 in0.0 mm
03:16 AM 45.2°F7.3°C 31.8°F-0.1°C 59% 0.5 mph SE0.8 kmh SE 1.9 mph3.1 kmh 29.86 in1011.2 mb 0.00 in0.0 mm 0.00 in0.0 mm 0.00 in0.0 mm
03:11 AM 45.6°F7.6°C 32.2°F0.1°C 59% 0.5 mph SSE0.8 kmh SSE 1.9 mph3.1 kmh 29.86 in1011.2 mb 0.00 in0.0 mm 0.00 in0.0 mm 0.00 in0.0 mm
03:06 AM 45.8°F7.7°C 32.8°F0.4°C 60% 1.1 mph SE1.8 kmh SE 1.9 mph3.1 kmh 29.86 in1011.2 mb 0.00 in0.0 mm 0.00 in0.0 mm 0.00 in0.0 mm
03:01 AM 45.8°F7.7°C 32.8°F0.4°C 60% 0.4 mph SE0.6 kmh SE 1.9 mph3.1 kmh 29.86 in1011.2 mb 0.00 in0.0 mm 0.00 in0.0 mm 0.00 in0.0 mm
02:56 AM 45.9°F7.7°C 32.4°F0.2°C 59% 0.4 mph SE0.6 kmh SE 1.9 mph3.1 kmh 29.86 in1011.2 mb 0.00 in0.0 mm 0.00 in0.0 mm 0.00 in0.0 mm
02:51 AM 45.8°F7.7°C 32.3°F0.2°C 59% 0.8 mph ESE1.3 kmh ESE 1.9 mph3.1 kmh 29.86 in1011.2 mb 0.00 in0.0 mm 0.00 in0.0 mm 0.00 in0.0 mm
02:46 AM 45.9°F7.7°C 32.4°F0.2°C 59% 0.3 mph SE0.5 kmh SE 1.6 mph2.6 kmh 29.86 in1011.2 mb 0.00 in0.0 mm 0.00 in0.0 mm 0.00 in0.0 mm
02:40 AM 46.1°F7.8°C 32.6°F0.3°C 59% 0.4 mph SE0.6 kmh SE 1.6 mph2.6 kmh 29.86 in1011.2 mb 0.00 in0.0 mm 0.00 in0.0 mm 0.00 in0.0 mm
02:35 AM 46.3°F7.9°C 32.4°F0.2°C 58% 0.4 mph SE0.6 kmh SE 1.9 mph3.1 kmh 29.86 in1011.2 mb 0.00 in0.0 mm 0.00 in0.0 mm 0.00 in0.0 mm
02:30 AM 46.5°F8.1°C 32.5°F0.3°C 58% 0.8 mph SE1.3 kmh SE 1.9 mph3.1 kmh 29.86 in1011.2 mb 0.00 in0.0 mm 0.00 in0.0 mm 0.00 in0.0 mm
02:25 AM 46.7°F8.2°C 32.3°F0.2°C 57% 0.6 mph SSE1.0 kmh SSE 2.8 mph4.5 kmh 29.86 in1011.2 mb 0.00 in0.0 mm 0.00 in0.0 mm 0.00 in0.0 mm
02:20 AM 46.8°F8.2°C 32.4°F0.2°C 57% 1.0 mph SSE1.6 kmh SSE 3.1 mph5.0 kmh 29.86 in1011.2 mb 0.00 in0.0 mm 0.00 in0.0 mm 0.00 in0.0 mm
02:15 AM 46.8°F8.2°C 31.9°F-0.1°C 56% 1.1 mph SE1.8 kmh SE 3.1 mph5.0 kmh 29.86 in1011.2 mb 0.00 in0.0 mm 0.00 in0.0 mm 0.00 in0.0 mm
02:10 AM 46.9°F8.3°C 32.1°F0.1°C 56% 0.9 mph S1.4 kmh S 2.3 mph3.7 kmh 29.86 in1011.2 mb 0.00 in0.0 mm 0.00 in0.0 mm 0.00 in0.0 mm
02:05 AM 47.1°F8.4°C 32.3°F0.2°C 56% 0.9 mph SE1.4 kmh SE 2.8 mph4.5 kmh 29.86 in1011.2 mb 0.00 in0.0 mm 0.00 in0.0 mm 0.00 in0.0 mm
02:00 AM 47.3°F8.5°C 32.0°F0.0°C 55% 1.0 mph SE1.6 kmh SE 2.8 mph4.5 kmh 29.86 in1011.2 mb 0.00 in0.0 mm 0.00 in0.0 mm 0.00 in0.0 mm
01:55 AM 47.5°F8.6°C 32.2°F0.1°C 55% 0.3 mph SE0.5 kmh SE 0.7 mph1.1 kmh 29.86 in1011.2 mb 0.00 in0.0 mm 0.00 in0.0 mm 0.00 in0.0 mm
01:50 AM 47.8°F8.8°C 32.0°F0.0°C 54% 0.3 mph SSE0.5 kmh SSE 1.2 mph1.9 kmh 29.86 in1011.2 mb 0.00 in0.0 mm 0.00 in0.0 mm 0.00 in0.0 mm
01:45 AM 48.0°F8.9°C 32.2°F0.1°C 54% 0.5 mph SSE0.8 kmh SSE 3.1 mph5.0 kmh 29.86 in1011.2 mb 0.00 in0.0 mm 0.00 in0.0 mm 0.00 in0.0 mm
01:40 AM 48.4°F9.1°C 32.1°F0.1°C 53% 0.6 mph SE1.0 kmh SE 3.1 mph5.0 kmh 29.86 in1011.2 mb 0.00 in0.0 mm 0.00 in0.0 mm 0.00 in0.0 mm
01:35 AM 48.5°F9.2°C 32.2°F0.1°C 53% 0.5 mph SE0.8 kmh SE 1.9 mph3.1 kmh 29.86 in1011.2 mb 0.00 in0.0 mm 0.00 in0.0 mm 0.00 in0.0 mm
01:30 AM 48.7°F9.3°C 32.3°F0.2°C 53% 0.5 mph SSE0.8 kmh SSE 1.6 mph2.6 kmh 29.86 in1011.2 mb 0.00 in0.0 mm 0.00 in0.0 mm 0.00 in0.0 mm
01:25 AM 48.9°F9.4°C 32.0°F0.0°C 52% 0.6 mph SE1.0 kmh SE 1.9 mph3.1 kmh 29.86 in1011.2 mb 0.00 in0.0 mm 0.00 in0.0 mm 0.00 in0.0 mm
01:20 AM 49.3°F9.6°C 32.4°F0.2°C 52% 0.8 mph SSE1.3 kmh SSE 1.9 mph3.1 kmh 29.86 in1011.2 mb 0.00 in0.0 mm 0.00 in0.0 mm 0.00 in0.0 mm
01:15 AM 49.4°F9.7°C 32.5°F0.3°C 52% 0.6 mph SE1.0 kmh SE 3.5 mph5.6 kmh 29.86 in1011.2 mb 0.00 in0.0 mm 0.00 in0.0 mm 0.00 in0.0 mm
01:10 AM 49.6°F9.8°C 32.2°F0.1°C 51% 0.8 mph SE1.3 kmh SE 3.9 mph6.3 kmh 29.86 in1011.2 mb 0.00 in0.0 mm 0.00 in0.0 mm 0.00 in0.0 mm
01:05 AM 50.0°F10.0°C 32.5°F0.3°C 51% 0.8 mph SSE1.3 kmh SSE 6.0 mph9.7 kmh 29.86 in1011.2 mb 0.00 in0.0 mm 0.00 in0.0 mm 0.00 in0.0 mm
01:00 AM 50.1°F10.1°C 32.7°F0.4°C 51% 0.8 mph SE1.3 kmh SE 6.0 mph9.7 kmh 29.86 in1011.2 mb 0.00 in0.0 mm 0.00 in0.0 mm 0.00 in0.0 mm
12:55 AM 50.4°F10.2°C 32.5°F0.3°C 50% 1.7 mph SE2.7 kmh SE 6.0 mph9.7 kmh 29.86 in1011.2 mb 0.00 in0.0 mm 0.00 in0.0 mm 0.00 in0.0 mm
12:50 AM 50.6°F10.3°C 32.6°F0.3°C 50% 1.5 mph SE2.4 kmh SE 5.1 mph8.2 kmh 29.86 in1011.2 mb 0.00 in0.0 mm 0.00 in0.0 mm 0.00 in0.0 mm
12:45 AM 50.8°F10.4°C 32.3°F0.2°C 49% 1.8 mph SE2.9 kmh SE 5.1 mph8.2 kmh 29.86 in1011.2 mb 0.00 in0.0 mm 0.00 in0.0 mm 0.00 in0.0 mm
12:40 AM 51.1°F10.6°C 32.6°F0.3°C 49% 1.8 mph SSE2.9 kmh SSE 4.7 mph7.6 kmh 29.86 in1011.2 mb 0.00 in0.0 mm 0.00 in0.0 mm 0.00 in0.0 mm
12:35 AM 51.3°F10.7°C 32.8°F0.4°C 49% 1.3 mph SE2.1 kmh SE 9.4 mph15.1 kmh 29.85 in1010.8 mb 0.00 in0.0 mm 0.00 in0.0 mm 0.00 in0.0 mm
12:30 AM 51.5°F10.8°C 32.9°F0.5°C 49% 2.9 mph SE4.7 kmh SE 9.4 mph15.1 kmh 29.86 in1011.2 mb 0.00 in0.0 mm 0.00 in0.0 mm 0.00 in0.0 mm
12:25 AM 51.7°F10.9°C 32.6°F0.3°C 48% 3.0 mph ESE4.8 kmh ESE 9.4 mph15.1 kmh 29.85 in1010.8 mb 0.00 in0.0 mm 0.00 in0.0 mm 0.00 in0.0 mm
12:20 AM 51.9°F11.1°C 32.8°F0.4°C 48% 1.6 mph SSE2.6 kmh SSE 6.7 mph10.8 kmh 29.86 in1011.2 mb 0.00 in0.0 mm 0.00 in0.0 mm 0.00 in0.0 mm
12:15 AM 52.0°F11.1°C 32.8°F0.4°C 48% 1.7 mph E2.7 kmh E 7.5 mph12.1 kmh 29.86 in1011.2 mb 0.00 in0.0 mm 0.00 in0.0 mm 0.00 in0.0 mm
12:10 AM 52.2°F11.2°C 32.5°F0.3°C 47% 2.3 mph SE3.7 kmh SE 7.5 mph12.1 kmh 29.86 in1011.2 mb 0.00 in0.0 mm 0.00 in0.0 mm 0.00 in0.0 mm
12:05 AM 52.6°F11.4°C 32.8°F0.4°C 47% 4.3 mph SE6.9 kmh SE 7.0 mph11.3 kmh 29.86 in1011.2 mb 0.00 in0.0 mm 0.00 in0.0 mm 0.00 in0.0 mm
12:00 AM 52.8°F11.6°C 33.0°F0.6°C 47% 4.1 mph SE6.6 kmh SE 7.0 mph11.3 kmh 29.86 in1011.2 mb 0.00 in0.0 mm 0.00 in0.0 mm 0.00 in0.0 mm